Skip Navigation Links Skip Navigation Links

Current Weather

Lynn Lake, Man., Lynn Lake, Man.

For information only: do not use for flight planning or navigation.
Latest weather
Observation time Sunday, January 21, 2018 2:00 PM CST
Local time Sunday, January 21, 2018 2:40 PM CST
Flight conditions Visual Meteorological Conditions
Winds
Wind direction East-Southeast (110°)
Wind speed 6 mph
Visibility 9 mi.
Sky condition
Ceiling unlimited
Sky clear
Temperature -2°F
Dewpoint -8°F
Altimeter 30.17 in.Hg
Derived measurements
Relative humidity 77%
Wind chill -14°F
Density altitude -4256 ft.
Sea-level pressure 30.30 in.Hg
Remarks
Fully automated report.
METAR CYYL 212000Z AUTO 11005KT 9SM CLR M19/M22 A3017 RMK SLP260

Settings

Location code

InnerDrive.Weather 4.0.6144.1 Release CLR 4.0.30319.36366
Copyright ©2015 Inner Drive Technology. All rights reserved. Portions Copyright ©1986-2015 David Braverman.

Find weather

Site navigation


Skip Navigation Links

Place info

Page info

PayPal - The safer, easier way to pay online!

Return home.

Copyright ©2018 Inner Drive Technology. Purveyors of fine, hand-crafted computer software. Page printed 2018-01-21T20:40:53 UTC.